Time;durP1;ratioP1;P1;durP2;ratioP2;P2;SDS_P1;SDS_P2;PMS_P1;PMS_P2;Temp;Humidity;BMP_temperature;BMP_pressure;BME280_temperature;BME280_humidity;BME280_pressure;Samples;Min_cycle;Max_cycle;Signal;HPM_P1;HPM_P2
2021/03/14 00:01:06;;;;;;;35.70;17.87;;;;;;;3.37;74.69;100391.27;125538;1099;104189;-77
2021/03/14 00:03:37;;;;;;;35.73;18.90;;;;;;;3.36;74.38;100386.86;125587;1099;104224;-77
2021/03/14 00:06:05;;;;;;;36.73;18.37;;;;;;;3.36;74.17;100388.57;125679;1098;104221;-77
2021/03/14 00:08:34;;;;;;;38.70;20.17;;;;;;;3.37;74.49;100380.88;125632;1099;104316;-77
2021/03/14 00:11:06;;;;;;;39.97;20.03;;;;;;;3.35;74.61;100371.20;125592;1099;104320;-77
2021/03/14 00:13:37;;;;;;;36.57;18.40;;;;;;;3.33;74.24;100370.22;125623;1099;104182;-77
2021/03/14 00:16:10;;;;;;;40.33;19.30;;;;;;;3.32;73.95;100363.23;125612;1098;104297;-78
2021/03/14 00:18:42;;;;;;;37.60;19.80;;;;;;;3.30;74.55;100364.84;125653;1098;104169;-77
2021/03/14 00:21:12;;;;;;;35.47;18.40;;;;;;;3.29;74.15;100358.77;125646;1099;104297;-77
2021/03/14 00:23:41;;;;;;;33.27;17.10;;;;;;;3.28;74.29;100356.08;125571;1098;104191;-77
2021/03/14 00:26:10;;;;;;;32.50;16.50;;;;;;;3.29;74.31;100361.36;125634;1098;104175;-77
2021/03/14 00:28:39;;;;;;;28.90;14.13;;;;;;;3.24;74.59;100355.89;125632;1099;104223;-77
2021/03/14 00:31:08;;;;;;;28.10;13.90;;;;;;;3.23;74.78;100356.68;125630;1099;104239;-77
2021/03/14 00:33:37;;;;;;;30.73;14.47;;;;;;;3.22;74.26;100357.47;125605;1097;104248;-77
2021/03/14 00:36:07;;;;;;;30.53;16.40;;;;;;;3.21;74.13;100354.77;125589;1099;104179;-77
2021/03/14 00:38:36;;;;;;;22.63;11.07;;;;;;;3.18;74.95;100354.59;125667;1099;105202;-77
2021/03/14 00:41:05;;;;;;;32.03;15.20;;;;;;;3.12;74.67;100357.71;125602;1099;104185;-77
2021/03/14 00:43:35;;;;;;;30.40;15.50;;;;;;;3.07;74.59;100351.34;125540;1099;104147;-77
2021/03/14 00:46:04;;;;;;;26.17;12.97;;;;;;;3.03;74.67;100365.79;125591;1099;104316;-77
2021/03/14 00:48:38;;;;;;;29.87;14.70;;;;;;;2.96;74.63;100367.89;125590;1099;104169;-77
2021/03/14 00:51:07;;;;;;;26.47;12.97;;;;;;;2.97;74.26;100369.70;125654;1099;104169;-77
2021/03/14 00:53:41;;;;;;;27.37;15.00;;;;;;;2.97;75.10;100374.88;125611;1099;104172;-77
2021/03/14 00:56:15;;;;;;;26.70;13.57;;;;;;;2.96;74.85;100365.30;125625;1099;104172;-77
2021/03/14 00:58:45;;;;;;;24.33;11.77;;;;;;;2.95;74.19;100356.64;125600;1099;105757;-77
2021/03/14 01:01:14;;;;;;;26.20;13.03;;;;;;;2.90;73.91;100357.12;125611;1096;104309;-77
2021/03/14 01:03:44;;;;;;;27.13;12.33;;;;;;;2.80;74.89;100350.47;125640;1098;104168;-77
2021/03/14 01:06:13;;;;;;;27.97;14.27;;;;;;;2.70;74.69;100344.69;125603;1099;104172;-77
2021/03/14 01:08:42;;;;;;;31.27;14.87;;;;;;;2.69;74.81;100342.00;125711;1097;104370;-76
2021/03/14 01:11:11;;;;;;;29.93;14.30;;;;;;;2.66;74.46;100328.85;125653;1099;104422;-77
2021/03/14 01:13:52;;;;;;;31.05;15.00;;;;;;;2.68;74.17;100335.02;125637;1099;104230;-77
2021/03/14 01:16:23;;;;;;;30.27;14.23;;;;;;;2.70;74.42;100333.45;125642;1099;104197;-78
2021/03/14 01:18:52;;;;;;;28.17;14.00;;;;;;;2.71;74.80;100327.44;125645;1099;104162;-77
2021/03/14 01:21:21;;;;;;;26.97;12.63;;;;;;;2.70;74.62;100325.67;125656;1099;104162;-77
2021/03/14 01:23:50;;;;;;;28.33;13.30;;;;;;;2.68;74.80;100320.39;125621;1099;104219;-77
2021/03/14 01:26:19;;;;;;;29.27;15.10;;;;;;;2.68;74.94;100319.47;125535;1097;104303;-77
2021/03/14 01:28:49;;;;;;;28.73;13.40;;;;;;;2.64;74.78;100312.33;125634;1099;104162;-77
2021/03/14 01:31:17;;;;;;;27.20;13.23;;;;;;;2.61;75.08;100317.30;125633;1099;104178;-77
2021/03/14 01:33:46;;;;;;;27.17;14.43;;;;;;;2.62;75.27;100304.45;125620;1099;104229;-78
2021/03/14 01:36:17;;;;;;;24.97;13.03;;;;;;;2.65;74.93;100303.73;125624;1099;104185;-78
2021/03/14 01:38:46;;;;;;;27.73;14.10;;;;;;;2.68;74.96;100298.75;125601;1099;104171;-77
2021/03/14 01:41:15;;;;;;;25.33;12.07;;;;;;;2.73;75.46;100297.37;125648;1099;104217;-77
2021/03/14 01:43:44;;;;;;;29.27;13.70;;;;;;;2.72;74.64;100295.56;125575;1099;104178;-77
2021/03/14 01:46:14;;;;;;;24.70;12.53;;;;;;;2.72;74.65;100295.56;125565;1099;105759;-77
2021/03/14 01:48:43;;;;;;;30.37;14.30;;;;;;;2.75;75.23;100294.87;125615;1099;104306;-77
2021/03/14 01:51:12;;;;;;;27.67;14.03;;;;;;;2.78;75.05;100282.11;125629;1099;104184;-78
2021/03/14 01:53:41;;;;;;;27.87;13.37;;;;;;;2.78;74.86;100282.11;125630;1097;104271;-77
2021/03/14 01:56:10;;;;;;;29.53;14.77;;;;;;;2.79;74.91;100273.52;125629;1099;105542;-77
2021/03/14 01:58:41;;;;;;;31.75;16.15;;;;;;;2.82;75.25;100272.03;125639;1099;104176;-77
2021/03/14 02:01:12;;;;;;;31.00;15.93;;;;;;;2.85;75.52;100271.31;125655;1099;104203;-76
2021/03/14 02:03:40;;;;;;;33.23;16.67;;;;;;;2.89;74.98;100265.53;125624;1098;104526;-77
2021/03/14 02:06:10;;;;;;;33.73;16.37;;;;;;;2.91;74.90;100263.04;125656;1099;104171;-77
2021/03/14 02:08:38;;;;;;;30.53;15.20;;;;;;;2.92;74.63;100265.72;125587;1099;104163;-77
2021/03/14 02:11:09;;;;;;;31.87;16.10;;;;;;;2.93;75.04;100256.24;125622;1099;104191;-77
2021/03/14 02:13:41;;;;;;;33.60;15.97;;;;;;;2.95;75.29;100270.22;125678;1099;104181;-76
2021/03/14 02:16:14;;;;;;;29.77;15.23;;;;;;;2.95;74.77;100262.44;125601;1099;105580;-77
2021/03/14 02:18:48;;;;;;;30.43;15.00;;;;;;;2.94;75.18;100255.45;125629;1099;104172;-76
2021/03/14 02:21:19;;;;;;;30.17;14.85;;;;;;;2.96;75.67;100259.94;125652;1099;104165;-76
2021/03/14 02:23:56;;;;;;;26.07;11.97;;;;;;;2.98;75.24;100249.67;125632;1099;104168;-77
2021/03/14 02:26:27;;;;;;;30.13;15.03;;;;;;;2.93;75.42;100254.56;125601;1098;104168;-76
2021/03/14 02:28:57;;;;;;;31.07;14.70;;;;;;;2.92;74.90;100260.55;125624;1099;104271;-76
2021/03/14 02:31:28;;;;;;;32.73;15.17;;;;;;;2.91;75.33;100268.22;125636;1099;104198;-76
2021/03/14 02:34:05;;;;;;;31.43;15.03;;;;;;;2.88;75.60;100275.02;125625;1099;104159;-76
2021/03/14 02:36:38;;;;;;;33.27;16.70;;;;;;;2.87;74.67;100270.63;125628;1099;104182;-78
2021/03/14 02:39:10;;;;;;;33.40;17.00;;;;;;;2.90;75.06;100269.92;125658;1099;104210;-77
2021/03/14 02:41:39;;;;;;;31.73;15.97;;;;;;;2.92;75.40;100272.62;125627;1099;104307;-77
2021/03/14 02:44:12;;;;;;;29.67;14.57;;;;;;;2.90;75.31;100269.01;125618;1099;104169;-77
2021/03/14 02:46:42;;;;;;;33.33;17.17;;;;;;;2.92;75.28;100263.13;125633;1099;104242;-77
2021/03/14 02:49:11;;;;;;;34.27;16.43;;;;;;;2.92;75.57;100264.84;125641;1099;104238;-77
2021/03/14 02:51:40;;;;;;;27.67;12.67;;;;;;;2.93;75.63;100259.75;125661;1099;104328;-76
2021/03/14 02:54:10;;;;;;;33.53;16.70;;;;;;;2.93;74.96;100272.71;125570;1099;104341;-77
2021/03/14 02:56:40;;;;;;;31.70;15.95;;;;;;;2.99;75.29;100278.28;125632;1099;104214;-77
2021/03/14 02:59:09;;;;;;;33.43;16.57;;;;;;;3.01;75.78;100273.19;125586;1099;104165;-77
2021/03/14 03:01:38;;;;;;;32.90;16.47;;;;;;;3.03;75.58;100276.77;125664;1099;104816;-77
2021/03/14 03:04:07;;;;;;;33.43;16.93;;;;;;;3.04;75.60;100279.45;125635;1099;104303;-78
2021/03/14 03:06:37;;;;;;;34.20;16.77;;;;;;;3.05;75.07;100273.48;125643;1096;104290;-77
2021/03/14 03:09:07;;;;;;;34.77;18.10;;;;;;;3.03;75.62;100274.17;125615;1099;104245;-77
2021/03/14 03:11:36;;;;;;;37.53;18.23;;;;;;;3.05;75.80;100269.97;125601;1099;104224;-77
2021/03/14 03:14:06;;;;;;;31.27;14.80;;;;;;;3.04;75.28;100269.08;125643;1099;104172;-77
2021/03/14 03:16:35;;;;;;;36.20;18.07;;;;;;;3.04;75.21;100268.20;125640;1099;104291;-78
2021/03/14 03:19:05;;;;;;;36.23;17.10;;;;;;;3.03;75.31;100264.69;125564;1099;104207;-77
2021/03/14 03:21:34;;;;;;;30.10;14.80;;;;;;;3.05;75.14;100267.37;125613;1099;104179;-77
2021/03/14 03:24:03;;;;;;;33.40;17.03;;;;;;;3.09;75.46;100268.48;125645;1099;104182;-77
2021/03/14 03:26:32;;;;;;;32.17;16.20;;;;;;;3.12;75.72;100261.78;125670;1097;104178;-78
2021/03/14 03:29:01;;;;;;;33.07;16.73;;;;;;;3.12;75.73;100266.97;125611;1098;105564;-78
2021/03/14 03:31:29;;;;;;;33.37;16.30;;;;;;;3.15;75.05;100268.86;125621;1099;104203;-77
2021/03/14 03:33:58;;;;;;;34.40;17.47;;;;;;;3.14;75.74;100265.34;125667;1099;104214;-78
2021/03/14 03:36:27;;;;;;;34.53;17.33;;;;;;;3.12;75.77;100269.55;125647;1097;104362;-78
2021/03/14 03:38:56;;;;;;;32.07;16.43;;;;;;;3.14;75.99;100274.84;125598;1097;104271;-77
2021/03/14 03:41:28;;;;;;;35.50;18.03;;;;;;;3.13;75.80;100267.84;125616;1099;104182;-77
2021/03/14 03:44:00;;;;;;;29.23;14.43;;;;;;;3.06;75.43;100258.80;125643;1099;104249;-77
2021/03/14 03:46:29;;;;;;;34.87;17.20;;;;;;;3.01;75.65;100263.70;125588;1099;104155;-77
2021/03/14 03:48:59;;;;;;;33.33;17.20;;;;;;;3.02;75.15;100257.73;125635;1099;104162;-77
2021/03/14 03:51:30;;;;;;;34.13;16.77;;;;;;;3.04;75.14;100258.71;125680;1099;104223;-77
2021/03/14 03:54:03;;;;;;;35.47;16.47;;;;;;;3.03;75.18;100250.84;125618;1099;104329;-77
2021/03/14 03:56:36;;;;;;;29.67;14.67;;;;;;;3.02;74.96;100247.36;125637;1099;104181;-77
2021/03/14 03:59:07;;;;;;;34.67;16.97;;;;;;;2.95;75.70;100250.36;125629;1099;104300;-77
2021/03/14 04:01:37;;;;;;;32.20;15.80;;;;;;;2.90;75.05;100251.78;125634;1098;104168;-77
2021/03/14 04:04:07;;;;;;;32.40;16.63;;;;;;;2.88;75.21;100248.17;125609;1099;104175;-77
2021/03/14 04:06:37;;;;;;;35.30;17.57;;;;;;;2.90;75.54;100237.91;125646;1099;104296;-77
2021/03/14 04:09:08;;;;;;;33.37;16.47;;;;;;;2.90;75.22;100238.83;125619;1099;104178;-77
2021/03/14 04:11:40;;;;;;;32.73;16.70;;;;;;;2.91;75.63;100235.41;125665;1098;104360;-76
2021/03/14 04:14:10;;;;;;;30.83;15.70;;;;;;;2.91;74.94;100231.94;125643;1099;104245;-76
2021/03/14 04:16:40;;;;;;;32.83;16.97;;;;;;;2.93;75.88;100236.42;125639;1099;104238;-77
2021/03/14 04:19:14;;;;;;;32.20;16.37;;;;;;;2.96;75.53;100240.87;125626;1098;104380;-77
2021/03/14 04:21:44;;;;;;;31.53;15.90;;;;;;;3.00;75.82;100235.09;125679;1099;104172;-76
2021/03/14 04:24:16;;;;;;;34.40;17.07;;;;;;;2.99;75.18;100231.62;125632;1099;104293;-77
2021/03/14 04:26:47;;;;;;;33.33;16.30;;;;;;;2.95;75.50;100236.52;125651;1097;104176;-76
2021/03/14 04:29:18;;;;;;;36.30;18.17;;;;;;;2.91;75.50;100231.94;125642;1099;104239;-77
2021/03/14 04:31:49;;;;;;;33.03;16.60;;;;;;;2.87;75.48;100236.93;125685;1099;104310;-76
2021/03/14 04:34:20;;;;;;;26.33;12.73;;;;;;;2.85;75.11;100233.36;125609;1098;104172;-77
2021/03/14 04:36:49;;;;;;;29.53;15.10;;;;;;;2.81;75.88;100244.32;125623;1099;104159;-76
2021/03/14 04:39:19;;;;;;;33.10;16.47;;;;;;;2.81;75.74;100248.62;125579;1099;104280;-77
2021/03/14 04:41:48;;;;;;;27.30;13.60;;;;;;;2.81;75.87;100246.91;125640;1099;104178;-77
2021/03/14 04:44:20;;;;;;;31.27;15.87;;;;;;;2.76;75.35;100237.97;125653;1099;104194;-77
2021/03/14 04:46:48;;;;;;;32.80;16.87;;;;;;;2.72;75.79;100243.74;125657;1097;104290;-77
2021/03/14 04:49:18;;;;;;;31.37;16.17;;;;;;;2.70;75.65;100222.91;125594;1099;104248;-77
2021/03/14 04:51:48;;;;;;;31.80;16.03;;;;;;;2.72;75.54;100225.61;125662;1099;104162;-76
2021/03/14 04:54:18;;;;;;;31.90;15.37;;;;;;;2.74;75.19;100223.11;125651;1099;104184;-77
2021/03/14 04:56:47;;;;;;;32.50;15.50;;;;;;;2.78;75.22;100218.22;125585;1099;104373;-77
2021/03/14 04:59:18;;;;;;;32.13;15.13;;;;;;;2.83;75.09;100215.91;125620;1099;104519;-77
2021/03/14 05:01:49;;;;;;;34.57;18.03;;;;;;;2.83;75.48;100215.91;125642;1099;104182;-76
2021/03/14 05:04:20;;;;;;;36.20;17.55;;;;;;;2.87;75.34;100220.49;125640;1099;104302;-77
2021/03/14 05:06:51;;;;;;;34.20;17.30;;;;;;;2.91;75.60;100214.67;125621;1098;104169;-77
2021/03/14 05:09:20;;;;;;;34.83;17.70;;;;;;;2.96;75.63;100225.33;125654;1098;104300;-77
2021/03/14 05:11:49;;;;;;;35.97;17.63;;;;;;;2.94;75.85;100224.35;125570;1099;104171;-77
2021/03/14 05:14:19;;;;;;;37.30;18.50;;;;;;;2.93;75.28;100225.14;125674;1099;104306;-77
2021/03/14 05:16:48;;;;;;;37.57;18.20;;;;;;;2.99;75.50;100229.03;125611;1099;104203;-77
2021/03/14 05:19:19;;;;;;;34.00;17.63;;;;;;;3.05;75.89;100233.67;125633;1099;104238;-78
2021/03/14 05:21:47;;;;;;;34.43;17.10;;;;;;;3.10;75.88;100229.69;125596;1099;118973;-78
2021/03/14 05:24:17;;;;;;;36.13;18.27;;;;;;;3.15;75.15;100225.67;125552;1099;104165;-77
2021/03/14 05:26:47;;;;;;;34.37;16.60;;;;;;;3.17;75.87;100226.64;125542;1099;104620;-77
2021/03/14 05:29:17;;;;;;;34.43;17.73;;;;;;;3.20;75.03;100228.54;125559;1099;105608;-77
2021/03/14 05:31:47;;;;;;;34.87;17.50;;;;;;;3.24;75.85;100214.94;125640;1098;104297;-77
2021/03/14 05:34:17;;;;;;;32.50;15.87;;;;;;;3.26;75.61;100220.22;125655;1098;104176;-77
2021/03/14 05:36:46;;;;;;;34.63;17.10;;;;;;;3.34;76.09;100216.41;125633;1099;104223;-77
2021/03/14 05:39:15;;;;;;;34.63;17.43;;;;;;;3.35;75.64;100224.28;125656;1099;104171;-77
2021/03/14 05:41:45;;;;;;;32.87;16.10;;;;;;;3.36;75.08;100214.80;125639;1099;104211;-77
2021/03/14 05:44:14;;;;;;;29.43;14.37;;;;;;;3.38;74.96;100223.55;125612;1098;104163;-77
2021/03/14 05:46:43;;;;;;;31.73;16.20;;;;;;;3.31;75.06;100231.78;125657;1099;104191;-77
2021/03/14 05:49:12;;;;;;;32.17;16.00;;;;;;;3.22;75.64;100222.63;125625;1099;104168;-77
2021/03/14 05:51:50;;;;;;;35.10;16.00;;;;;;;3.15;75.39;100222.19;125621;1099;104174;-77
2021/03/14 05:54:20;;;;;;;33.63;16.70;;;;;;;3.14;75.04;100213.49;125625;1098;104175;-77
2021/03/14 05:56:50;;;;;;;25.60;10.77;;;;;;;3.15;75.70;100212.70;125703;1097;104300;-77
2021/03/14 05:59:19;;;;;;;36.47;17.27;;;;;;;3.13;75.08;100226.36;125678;1099;104160;-77
2021/03/14 06:01:51;;;;;;;32.80;16.03;;;;;;;3.18;75.80;100227.53;125628;1099;104168;-77
2021/03/14 06:04:20;;;;;;;34.77;17.93;;;;;;;3.22;75.54;100226.92;125649;1099;104194;-78
2021/03/14 06:06:49;;;;;;;37.20;19.30;;;;;;;3.29;75.84;100228.18;125625;1099;104297;-77
2021/03/14 06:09:18;;;;;;;40.90;20.00;;;;;;;3.33;76.01;100218.09;125667;1099;104191;-77
2021/03/14 06:11:47;;;;;;;35.20;17.40;;;;;;;3.33;75.56;100218.09;125601;1097;104183;-77
2021/03/14 06:14:16;;;;;;;40.67;19.27;;;;;;;3.34;75.92;100224.19;125615;1097;104217;-76
2021/03/14 06:16:45;;;;;;;39.93;19.00;;;;;;;3.36;75.31;100226.05;125654;1098;104242;-77
2021/03/14 06:19:13;;;;;;;41.63;19.60;;;;;;;3.41;75.85;100219.46;125680;1097;104175;-77
2021/03/14 06:21:42;;;;;;;38.37;18.87;;;;;;;3.46;75.51;100222.33;125622;1099;103054;-77
2021/03/14 06:24:13;;;;;;;41.90;19.03;;;;;;;3.49;75.85;100222.52;125635;1099;104194;-77
2021/03/14 06:26:44;;;;;;;44.27;20.87;;;;;;;3.55;75.41;100220.28;125647;1097;104309;-76
2021/03/14 06:29:27;;;;;;;42.63;19.37;;;;;;;3.60;75.36;100225.75;125655;1099;104207;-77
2021/03/14 06:31:59;;;;;;;45.87;21.53;;;;;;;3.64;75.84;100232.89;125615;1099;104239;-77
2021/03/14 06:34:34;;;;;;;42.27;19.23;;;;;;;3.67;75.91;100245.16;125675;1098;104171;-77
2021/03/14 06:37:11;;;;;;;47.17;21.90;;;;;;;3.71;75.74;100234.13;125664;1097;104204;-76
2021/03/14 06:39:42;;;;;;;45.13;20.27;;;;;;;3.80;75.56;100238.98;125627;1099;104294;-77
2021/03/14 06:42:11;;;;;;;45.03;20.90;;;;;;;3.87;76.09;100242.02;125646;1099;104168;-77
2021/03/14 06:44:40;;;;;;;44.80;21.07;;;;;;;3.95;75.79;100235.56;125619;1099;104216;-77
2021/03/14 06:47:10;;;;;;;41.77;19.37;;;;;;;4.01;75.72;100244.54;125638;1099;104176;-77
2021/03/14 06:49:40;;;;;;;40.67;19.57;;;;;;;4.03;75.92;100242.92;125646;1099;104306;-77
2021/03/14 06:52:10;;;;;;;44.73;20.03;;;;;;;4.07;75.63;100239.70;125592;1099;104363;-77
2021/03/14 06:54:40;;;;;;;41.03;19.60;;;;;;;4.08;75.15;100250.17;125630;1099;104178;-77
2021/03/14 06:57:15;;;;;;;46.17;20.60;;;;;;;4.07;75.60;100252.69;125638;1099;104280;-77
2021/03/14 06:59:45;;;;;;;45.70;21.57;;;;;;;4.11;75.80;100249.44;125636;1099;104172;-77
2021/03/14 07:02:15;;;;;;;49.30;22.17;;;;;;;4.13;75.20;100240.05;125646;1099;104311;-77
2021/03/14 07:04:47;;;;;;;44.60;21.10;;;;;;;4.14;75.95;100241.82;125609;1099;104408;-77
2021/03/14 07:07:23;;;;;;;43.47;19.40;;;;;;;4.09;75.33;100253.66;125639;1099;104168;-77
2021/03/14 07:09:58;;;;;;;45.57;21.13;;;;;;;4.12;75.79;100254.72;125676;1099;104217;-77
2021/03/14 07:12:30;;;;;;;49.33;22.00;;;;;;;4.22;75.76;100248.34;125659;1099;104168;-77
2021/03/14 07:15:11;;;;;;;49.47;22.87;;;;;;;4.32;75.79;100242.87;125668;1099;104235;-77
2021/03/14 07:17:41;;;;;;;47.17;23.23;;;;;;;4.34;75.72;100244.67;125629;1099;104194;-77
2021/03/14 07:20:14;;;;;;;49.37;21.70;;;;;;;4.35;75.15;100249.03;125663;1097;104181;-77
2021/03/14 07:22:56;;;;;;;50.60;22.70;;;;;;;4.37;75.87;100247.44;125615;1098;104274;-77
2021/03/14 07:25:26;;;;;;;48.73;23.67;;;;;;;4.40;76.00;100245.02;125643;1099;104233;-77
2021/03/14 07:27:55;;;;;;;53.40;24.30;;;;;;;4.49;75.92;100245.53;125649;1099;104179;-77
2021/03/14 07:30:27;;;;;;;53.70;23.73;;;;;;;4.60;76.13;100240.94;125660;1096;104339;-77
2021/03/14 07:32:57;;;;;;;48.73;23.03;;;;;;;4.72;76.04;100238.09;125668;1099;104191;-77
2021/03/14 07:35:27;;;;;;;53.20;24.10;;;;;;;4.88;75.81;100238.14;125623;1099;104172;-77
2021/03/14 07:37:59;;;;;;;52.70;24.83;;;;;;;5.02;75.53;100224.16;125693;1099;104168;-77
2021/03/14 07:40:30;;;;;;;54.50;25.37;;;;;;;5.16;75.90;100222.30;125671;1099;104187;-77
2021/03/14 07:43:00;;;;;;;54.27;24.77;;;;;;;5.24;75.94;100212.30;125610;1099;104290;-77
2021/03/14 07:45:30;;;;;;;53.37;24.87;;;;;;;5.28;76.06;100209.02;125642;1099;104165;-77
2021/03/14 07:48:00;;;;;;;60.67;27.93;;;;;;;5.25;75.65;100202.77;125652;1099;104185;-77
2021/03/14 07:50:36;;;;;;;61.33;27.50;;;;;;;5.31;75.87;100195.29;125647;1099;104172;-78
2021/03/14 07:53:08;;;;;;;61.37;27.03;;;;;;;5.30;75.82;100189.20;125577;1099;104223;-77
2021/03/14 07:55:39;;;;;;;58.30;27.13;;;;;;;5.35;75.95;100184.23;125667;1099;104172;-77
2021/03/14 07:58:13;;;;;;;57.13;26.33;;;;;;;5.41;75.23;100171.55;125627;1099;104230;-77
2021/03/14 08:00:43;;;;;;;53.43;25.30;;;;;;;5.45;75.92;100162.17;125657;1099;104165;-76
2021/03/14 08:03:12;;;;;;;57.83;27.33;;;;;;;5.54;75.95;100173.05;125614;1098;104294;-77
2021/03/14 08:05:51;;;;;;;62.17;28.40;;;;;;;5.60;75.51;100175.08;125650;1099;104159;-77
2021/03/14 08:08:46;;;;;;;64.55;29.25;;;;;;;5.69;75.77;100170.34;125627;1098;104769;-78
2021/03/14 08:11:28;;;;;;;61.47;27.03;;;;;;;5.78;75.70;100162.07;125642;1099;104210;-78
2021/03/14 08:13:57;;;;;;;63.03;27.43;;;;;;;5.88;75.82;100161.72;125633;1099;104345;-77
2021/03/14 08:16:28;;;;;;;55.70;24.13;;;;;;;6.01;75.48;100158.91;125643;1099;104165;-77
2021/03/14 08:19:12;;;;;;;64.23;29.67;;;;;;;6.14;75.83;100147.39;125642;1097;104175;-77
2021/03/14 08:21:42;;;;;;;56.47;27.07;;;;;;;6.22;75.55;100146.03;125647;1099;104172;-77
2021/03/14 08:24:14;;;;;;;64.13;27.77;;;;;;;6.30;76.04;100138.58;125623;1099;104303;-77
2021/03/14 08:26:43;;;;;;;57.13;26.27;;;;;;;6.34;75.76;100130.06;125628;1099;104197;-77
2021/03/14 08:29:17;;;;;;;51.08;23.47;;;;;;;6.33;75.78;100128.30;125628;1099;104169;-77
2021/03/14 08:31:55;;;;;;;64.23;29.43;;;;;;;6.28;75.41;100125.48;125646;1099;104248;-76
2021/03/14 08:34:44;;;;;;;63.03;28.47;;;;;;;6.29;75.54;100126.36;125603;1097;104846;-77
2021/03/14 08:37:24;;;;;;;64.60;30.60;;;;;;;6.27;75.70;100120.19;125655;1099;104171;-77
2021/03/14 08:40:01;;;;;;;63.50;30.70;;;;;;;6.30;75.60;100125.55;125641;1099;104277;-77
2021/03/14 08:42:56;;;;;;;53.57;24.10;;;;;;;6.36;75.79;100132.73;125645;1099;104175;-78
2021/03/14 08:45:48;;;;;;;60.23;27.63;;;;;;;6.33;75.48;100125.69;125641;1099;119951;-77
2021/03/14 08:48:26;;;;;;;63.53;29.70;;;;;;;6.32;75.59;100138.66;125642;1099;104319;-78
2021/03/14 08:50:56;;;;;;;65.97;30.07;;;;;;;6.41;75.72;100132.14;125626;1099;104160;-77
2021/03/14 08:53:30;;;;;;;59.23;27.13;;;;;;;6.51;75.73;100127.36;125660;1099;104287;-77
2021/03/14 08:56:11;;;;;;;56.47;28.17;;;;;;;6.51;75.86;100124.75;125651;1099;106795;-77
2021/03/14 08:59:03;;;;;;;61.20;28.90;;;;;;;6.55;75.88;100117.14;125701;1099;104181;-77
2021/03/14 09:01:33;;;;;;;62.27;29.07;;;;;;;6.56;75.53;100113.73;125613;1099;104274;-77
2021/03/14 09:04:12;;;;;;;57.70;29.20;;;;;;;6.51;75.54;100112.60;125647;1099;104172;-77
2021/03/14 09:06:42;;;;;;;62.03;28.40;;;;;;;6.52;75.53;100108.30;125657;1099;104261;-77
2021/03/14 09:09:18;;;;;;;59.67;28.30;;;;;;;6.61;75.57;100104.39;125692;1099;104152;-77
2021/03/14 09:11:54;;;;;;;54.10;26.83;;;;;;;6.62;75.61;100097.45;125696;1099;104304;-77
2021/03/14 09:14:37;;;;;;;55.83;27.83;;;;;;;6.75;75.63;100085.88;125596;1099;104285;-78
2021/03/14 09:17:11;;;;;;;55.55;28.57;;;;;;;6.93;75.60;100091.87;125686;1099;104296;-77
2021/03/14 09:19:44;;;;;;;54.27;26.70;;;;;;;7.06;75.57;100088.10;125654;1099;104211;-78
2021/03/14 09:22:16;;;;;;;57.60;27.65;;;;;;;7.13;75.67;100084.03;125658;1099;104176;-77
2021/03/14 09:24:47;;;;;;;58.43;29.03;;;;;;;7.10;75.52;100087.39;125628;1099;104293;-77
2021/03/14 09:27:19;;;;;;;57.80;29.93;;;;;;;7.10;75.46;100086.50;125622;1097;104328;-77
2021/03/14 09:29:56;;;;;;;51.77;27.17;;;;;;;7.18;75.04;100098.16;125652;1099;104475;-77
2021/03/14 09:32:41;;;;;;;51.00;26.50;;;;;;;7.31;75.03;100094.37;125671;1098;104166;-77
2021/03/14 09:35:23;;;;;;;51.77;27.03;;;;;;;7.46;75.36;100084.54;125659;1099;104217;-77
2021/03/14 09:37:55;;;;;;;52.20;27.80;;;;;;;7.57;74.80;100071.93;125623;1099;104162;-77
2021/03/14 09:40:28;;;;;;;58.37;29.03;;;;;;;7.66;75.08;100055.75;125607;1099;104335;-78
2021/03/14 09:43:09;;;;;;;58.13;30.03;;;;;;;7.78;74.88;100061.47;125632;1099;104136;-77
2021/03/14 09:45:48;;;;;;;53.53;28.07;;;;;;;7.89;75.08;100065.39;125611;1099;104277;-77
2021/03/14 09:48:20;;;;;;;46.67;23.93;;;;;;;8.00;74.99;100067.55;125706;1099;104303;-77
2021/03/14 09:50:54;;;;;;;48.17;25.23;;;;;;;7.94;75.02;100078.64;125683;1099;104290;-78
2021/03/14 09:53:26;;;;;;;43.27;22.60;;;;;;;7.94;74.91;100070.80;125627;1099;104182;-76
2021/03/14 09:55:58;;;;;;;49.93;27.63;;;;;;;7.91;74.24;100073.30;125648;1098;104284;-77
2021/03/14 09:58:29;;;;;;;54.83;28.20;;;;;;;7.83;74.92;100080.83;125662;1099;104169;-77
2021/03/14 10:01:01;;;;;;;50.57;25.50;;;;;;;7.78;74.59;100078.88;125670;1099;104300;-77
2021/03/14 10:03:32;;;;;;;46.83;24.57;;;;;;;7.83;74.48;100080.83;125662;1099;104366;-77
2021/03/14 10:06:07;;;;;;;46.90;25.43;;;;;;;7.84;74.94;100081.73;125613;1099;105457;-78
2021/03/14 10:08:43;;;;;;;48.20;25.00;;;;;;;7.89;74.63;100088.91;125656;1099;104166;-77
2021/03/14 10:11:15;;;;;;;47.23;25.17;;;;;;;7.95;74.68;100082.13;125599;1099;104160;-77
2021/03/14 10:13:53;;;;;;;45.80;23.90;;;;;;;8.02;74.50;100081.55;125663;1099;104280;-77
2021/03/14 10:16:25;;;;;;;48.08;24.92;;;;;;;7.97;74.36;100077.87;125654;1099;105476;-77
2021/03/14 10:19:00;;;;;;;44.33;24.52;;;;;;;7.91;74.41;100078.52;125620;1100;104175;-77
2021/03/14 10:21:33;;;;;;;43.87;24.50;;;;;;;8.00;74.82;100067.55;125664;1099;104143;-77
2021/03/14 10:24:22;;;;;;;48.78;26.05;;;;;;;8.07;74.63;100065.23;125662;1099;104175;-78
2021/03/14 10:26:59;;;;;;;47.83;26.10;;;;;;;8.13;74.54;100055.84;125602;1099;104161;-76
2021/03/14 10:29:38;;;;;;;49.37;26.87;;;;;;;8.11;74.65;100055.78;125687;1099;104290;-76
2021/03/14 10:32:23;;;;;;;48.63;26.70;;;;;;;8.09;74.78;100053.11;125634;1099;104162;-75
2021/03/14 10:34:56;;;;;;;44.73;24.00;;;;;;;8.10;74.77;100051.38;125659;1099;104169;-75
2021/03/14 10:37:31;;;;;;;49.53;26.03;;;;;;;8.12;74.74;100054.05;125633;1099;104181;-76
2021/03/14 10:40:04;;;;;;;50.07;27.07;;;;;;;8.11;74.63;100047.94;125637;1099;104169;-76
2021/03/14 10:42:36;;;;;;;52.90;29.90;;;;;;;8.07;74.71;100056.48;125599;1099;104264;-76
2021/03/14 10:45:13;;;;;;;48.00;24.23;;;;;;;8.06;74.38;100049.50;125623;1099;104179;-76
2021/03/14 10:47:46;;;;;;;48.07;24.63;;;;;;;8.05;74.30;100052.93;125644;1099;104178;-76
2021/03/14 10:50:20;;;;;;;46.83;26.13;;;;;;;8.12;74.76;100049.73;125665;1099;104173;-76
2021/03/14 10:53:09;;;;;;;46.93;25.80;;;;;;;8.17;74.84;100049.91;125643;1099;104181;-76
2021/03/14 10:55:40;;;;;;;51.80;28.87;;;;;;;8.15;74.53;100046.33;125709;1099;104198;-77
2021/03/14 10:58:12;;;;;;;55.63;30.07;;;;;;;8.17;74.53;100047.30;125601;1098;104320;-76
2021/03/14 11:00:45;;;;;;;49.60;27.00;;;;;;;8.24;74.88;100038.84;125665;1099;104011;-77
2021/03/14 11:03:29;;;;;;;46.60;25.27;;;;;;;8.32;74.81;100033.89;125609;1099;104165;-77
2021/03/14 11:09:07;;;;;;;51.73;29.27;;;;;;;8.49;74.46;100040.66;124931;1100;118988;-76
2021/03/14 11:11:42;;;;;;;48.27;26.77;;;;;;;8.54;74.62;100033.90;124908;1102;104312;-77
2021/03/14 11:14:29;;;;;;;56.47;28.80;;;;;;;8.44;74.28;100024.80;124941;1102;104467;-77
2021/03/14 11:17:13;;;;;;;52.90;28.67;;;;;;;8.41;74.43;100022.08;124912;1102;104309;-77
2021/03/14 11:19:49;;;;;;;53.17;26.87;;;;;;;8.47;73.70;100018.80;124910;1102;104462;-76
2021/03/14 11:22:20;;;;;;;51.37;27.73;;;;;;;8.41;74.18;100021.16;124633;1102;104307;-77
2021/03/14 11:24:52;;;;;;;52.55;29.57;;;;;;;8.40;74.05;100022.02;124600;1102;104345;-76
2021/03/14 11:27:22;;;;;;;52.47;27.40;;;;;;;8.44;74.03;100014.34;124616;1102;104306;-77